createdAt,value
2023-02-25T00:02:24.940Z,20.84
2023-02-25T00:04:54.078Z,20.86
2023-02-25T00:07:23.128Z,20.89
2023-02-25T00:09:49.998Z,20.92
2023-02-25T00:12:16.882Z,20.95
2023-02-25T00:14:46.184Z,20.95
2023-02-25T00:17:13.072Z,20.97
2023-02-25T00:19:40.122Z,20.97
2023-02-25T00:22:06.956Z,20.97
2023-02-25T00:24:33.888Z,20.97
2023-02-25T00:27:00.804Z,20.98
2023-02-25T00:29:27.779Z,20.98
2023-02-25T00:31:54.916Z,20.97
2023-02-25T00:34:21.915Z,20.96
2023-02-25T00:36:50.430Z,20.97
2023-02-25T00:39:19.630Z,20.97
2023-02-25T00:41:46.574Z,20.96
2023-02-25T00:44:15.569Z,20.97
2023-02-25T00:46:42.410Z,20.93
2023-02-25T00:49:09.235Z,20.88
2023-02-25T00:51:38.938Z,20.84
2023-02-25T00:54:05.790Z,20.83
2023-02-25T00:56:32.638Z,20.81
2023-02-25T00:59:02.701Z,20.82
2023-02-25T01:01:31.166Z,20.77
2023-02-25T01:03:58.504Z,20.77
2023-02-25T01:06:28.984Z,20.75
2023-02-25T01:08:55.978Z,20.73
2023-02-25T01:11:27.288Z,20.72
2023-02-25T01:13:54.094Z,20.71
2023-02-25T01:16:22.705Z,20.68
2023-02-25T01:18:52.217Z,20.66
2023-02-25T01:21:21.038Z,20.65
2023-02-25T01:23:48.878Z,20.62
2023-02-25T01:26:16.060Z,20.57
2023-02-25T01:28:45.358Z,20.58
2023-02-25T01:31:15.238Z,20.52
2023-02-25T01:33:49.256Z,20.50
2023-02-25T01:36:16.026Z,20.48
2023-02-25T01:38:42.786Z,20.47
2023-02-25T01:41:09.744Z,20.41
2023-02-25T01:43:36.509Z,20.39
2023-02-25T01:46:03.470Z,20.36
2023-02-25T01:48:32.806Z,20.32
2023-02-25T01:51:03.717Z,20.31
2023-02-25T01:53:33.602Z,20.28
2023-02-25T01:56:04.056Z,20.26
2023-02-25T01:58:32.911Z,20.25
2023-02-25T02:00:59.960Z,20.22
2023-02-25T02:03:31.412Z,20.21
2023-02-25T02:05:59.605Z,20.19
2023-02-25T02:08:26.622Z,20.17
2023-02-25T02:10:53.499Z,20.15
2023-02-25T02:13:20.544Z,20.13
2023-02-25T02:16:03.444Z,20.10
2023-02-25T02:18:32.222Z,20.06
2023-02-25T02:21:12.111Z,20.03
2023-02-25T02:23:47.141Z,19.98
2023-02-25T02:26:14.187Z,19.97
2023-02-25T02:28:41.361Z,19.92
2023-02-25T02:31:11.441Z,19.92
2023-02-25T02:33:40.968Z,19.90
2023-02-25T02:36:19.006Z,19.87
2023-02-25T02:38:46.203Z,19.83
2023-02-25T02:41:18.018Z,19.82
2023-02-25T02:43:47.943Z,19.81
2023-02-25T02:46:20.030Z,19.79
2023-02-25T02:48:50.747Z,19.76
2023-02-25T02:51:23.248Z,19.74
2023-02-25T02:53:52.730Z,19.72
2023-02-25T02:56:21.952Z,19.69
2023-02-25T02:58:53.195Z,19.66
2023-02-25T03:01:22.682Z,19.65
2023-02-25T03:03:52.597Z,19.64
2023-02-25T03:06:21.731Z,19.62
2023-02-25T03:08:51.286Z,19.59
2023-02-25T03:11:18.142Z,19.61
2023-02-25T03:13:45.045Z,19.55
2023-02-25T03:16:17.254Z,19.56
2023-02-25T03:18:49.742Z,19.54
2023-02-25T03:21:20.435Z,19.51
2023-02-25T03:23:48.398Z,19.49
2023-02-25T03:26:15.514Z,19.48
2023-02-25T03:28:45.157Z,19.45
2023-02-25T03:31:15.405Z,19.44
2023-02-25T03:33:48.225Z,19.41
2023-02-25T03:36:18.212Z,19.38
2023-02-25T03:38:47.184Z,19.38
2023-02-25T03:41:15.843Z,19.35
2023-02-25T03:43:46.368Z,19.32
2023-02-25T03:46:16.372Z,19.29
2023-02-25T03:48:43.584Z,19.28
2023-02-25T03:51:10.387Z,19.25
2023-02-25T03:53:37.103Z,19.24
2023-02-25T03:56:05.880Z,19.23
2023-02-25T03:58:34.142Z,19.20
2023-02-25T04:01:03.624Z,19.17
2023-02-25T04:03:30.548Z,19.15
2023-02-25T04:05:57.267Z,19.15
2023-02-25T04:08:24.057Z,19.10
2023-02-25T04:10:50.756Z,19.09
2023-02-25T04:13:20.930Z,19.06
2023-02-25T04:15:48.547Z,19.06
2023-02-25T04:18:15.397Z,19.04
2023-02-25T04:20:42.487Z,19.03
2023-02-25T04:23:12.405Z,19.02
2023-02-25T04:25:39.125Z,19.01
2023-02-25T04:28:05.885Z,18.99
2023-02-25T04:30:34.268Z,18.97
2023-02-25T04:33:01.354Z,18.96
2023-02-25T04:35:28.103Z,18.94
2023-02-25T04:37:54.878Z,18.92
2023-02-25T04:40:22.580Z,18.91
2023-02-25T04:42:49.749Z,18.88
2023-02-25T04:45:18.821Z,18.87
2023-02-25T04:47:45.584Z,18.86
2023-02-25T04:50:12.750Z,18.86
2023-02-25T04:52:39.751Z,18.84
2023-02-25T04:55:06.980Z,18.86
2023-02-25T04:57:33.807Z,18.83
2023-02-25T05:00:00.549Z,18.81
2023-02-25T05:02:27.258Z,18.81
2023-02-25T05:04:54.008Z,18.80
2023-02-25T05:07:20.897Z,18.77
2023-02-25T05:09:47.760Z,18.76
2023-02-25T05:12:14.884Z,18.73
2023-02-25T05:14:41.766Z,18.73
2023-02-25T05:17:08.550Z,18.70
2023-02-25T05:19:35.817Z,18.71
2023-02-25T05:22:02.607Z,18.70
2023-02-25T05:24:29.383Z,18.70
2023-02-25T05:26:56.140Z,18.67
2023-02-25T05:29:22.937Z,18.64
2023-02-25T05:31:52.073Z,18.62
2023-02-25T05:34:18.939Z,18.64
2023-02-25T05:36:46.980Z,18.63
2023-02-25T05:39:13.900Z,18.59
2023-02-25T05:41:40.797Z,18.59
2023-02-25T05:44:08.133Z,18.57
2023-02-25T05:46:35.159Z,18.55
2023-02-25T05:49:02.025Z,18.54
2023-02-25T05:51:28.817Z,18.52
2023-02-25T05:53:55.694Z,18.53
2023-02-25T05:56:25.715Z,18.51
2023-02-25T05:58:52.859Z,18.48
2023-02-25T06:01:22.866Z,18.46
2023-02-25T06:03:50.337Z,18.46
2023-02-25T06:06:21.328Z,18.45
2023-02-25T06:08:49.623Z,18.44
2023-02-25T06:11:18.986Z,18.41
2023-02-25T06:13:47.745Z,18.41
2023-02-25T06:16:14.945Z,18.39
2023-02-25T06:18:41.716Z,18.39
2023-02-25T06:21:12.641Z,18.38
2023-02-25T06:23:40.409Z,18.38
2023-02-25T06:26:08.126Z,18.35
2023-02-25T06:28:35.800Z,18.34
2023-02-25T06:31:04.810Z,18.32
2023-02-25T06:33:32.043Z,18.31
2023-02-25T06:35:59.259Z,18.29
2023-02-25T06:38:30.833Z,18.29
2023-02-25T06:40:57.656Z,18.28
2023-02-25T06:43:24.400Z,18.26
2023-02-25T06:45:53.354Z,18.28
2023-02-25T06:48:20.133Z,18.30
2023-02-25T06:50:46.817Z,18.28
2023-02-25T06:53:13.502Z,18.25
2023-02-25T06:55:40.689Z,18.28
2023-02-25T06:58:07.581Z,18.23
2023-02-25T07:00:35.654Z,18.20
2023-02-25T07:03:03.415Z,18.19
2023-02-25T07:05:30.174Z,18.17
2023-02-25T07:07:57.015Z,18.16
2023-02-25T07:10:25.985Z,18.15
2023-02-25T07:12:53.508Z,18.14
2023-02-25T07:15:20.948Z,18.21
2023-02-25T07:17:48.076Z,18.17
2023-02-25T07:20:15.214Z,18.13
2023-02-25T07:22:43.112Z,18.15
2023-02-25T07:25:11.958Z,18.17
2023-02-25T07:27:42.421Z,18.14
2023-02-25T07:30:14.081Z,18.10
2023-02-25T07:32:42.030Z,18.07
2023-02-25T07:35:09.455Z,18.07
2023-02-25T07:37:36.180Z,18.05
2023-02-25T07:40:03.080Z,18.04
2023-02-25T07:42:29.895Z,18.03
2023-02-25T07:45:01.762Z,18.04
2023-02-25T07:47:28.896Z,17.99
2023-02-25T07:49:55.873Z,17.99
2023-02-25T07:52:24.845Z,17.97
2023-02-25T07:54:52.059Z,17.97
2023-02-25T07:57:18.794Z,17.96
2023-02-25T07:59:45.537Z,17.95
2023-02-25T08:02:12.786Z,17.95
2023-02-25T08:04:39.704Z,17.93
2023-02-25T08:07:07.050Z,17.92
2023-02-25T08:09:33.790Z,17.90
2023-02-25T08:12:00.537Z,17.90
2023-02-25T08:14:27.236Z,17.90
2023-02-25T08:16:56.520Z,17.89
2023-02-25T08:19:23.655Z,17.90
2023-02-25T08:21:50.546Z,17.88
2023-02-25T08:24:20.723Z,17.89
2023-02-25T08:26:47.826Z,17.88
2023-02-25T08:29:15.050Z,17.88
2023-02-25T08:31:42.181Z,17.87
2023-02-25T08:34:11.359Z,17.84
2023-02-25T08:36:38.099Z,17.86
2023-02-25T08:39:04.972Z,17.84
2023-02-25T08:41:31.716Z,17.84
2023-02-25T08:43:59.264Z,17.83
2023-02-25T08:46:27.670Z,17.82
2023-02-25T08:48:55.059Z,17.81
2023-02-25T08:51:23.590Z,17.82
2023-02-25T08:53:50.966Z,17.81
2023-02-25T08:56:18.081Z,17.81
2023-02-25T08:58:44.991Z,17.78
2023-02-25T09:01:13.897Z,17.78
2023-02-25T09:03:51.392Z,17.78
2023-02-25T09:06:20.107Z,17.77
2023-02-25T09:08:46.845Z,17.77
2023-02-25T09:11:13.694Z,17.76
2023-02-25T09:13:40.517Z,17.77
2023-02-25T09:16:07.697Z,17.74
2023-02-25T09:18:34.631Z,17.74
2023-02-25T09:21:01.942Z,17.76
2023-02-25T09:23:28.747Z,17.76
2023-02-25T09:25:55.714Z,17.77
2023-02-25T09:28:24.507Z,17.76
2023-02-25T09:30:51.533Z,17.75
2023-02-25T09:33:18.333Z,17.80
2023-02-25T09:35:45.492Z,17.78
2023-02-25T09:38:13.267Z,17.80
2023-02-25T09:40:41.391Z,17.84
2023-02-25T09:43:11.287Z,17.90
2023-02-25T09:45:41.164Z,17.96
2023-02-25T09:48:16.319Z,18.00
2023-02-25T09:50:46.817Z,18.08
2023-02-25T09:53:17.907Z,18.14
2023-02-25T09:55:47.932Z,18.21
2023-02-25T09:58:17.695Z,18.30
2023-02-25T10:00:45.890Z,18.38
2023-02-25T10:03:13.302Z,18.48
2023-02-25T10:05:41.575Z,18.55
2023-02-25T10:08:19.239Z,18.61
2023-02-25T10:11:13.048Z,18.68
2023-02-25T10:13:42.999Z,18.76
2023-02-25T10:16:11.291Z,18.84
2023-02-25T10:18:41.897Z,18.91
2023-02-25T10:21:11.750Z,18.98
2023-02-25T10:23:49.140Z,19.06
2023-02-25T10:26:19.698Z,19.09
2023-02-25T10:28:50.913Z,19.16
2023-02-25T10:31:19.048Z,19.22
2023-02-25T10:33:48.451Z,19.26
2023-02-25T10:36:15.817Z,19.30
2023-02-25T10:38:45.731Z,19.35
2023-02-25T10:41:13.175Z,19.43
2023-02-25T10:43:40.550Z,19.48
2023-02-25T10:46:10.896Z,19.52
2023-02-25T10:48:38.646Z,19.50
2023-02-25T10:51:06.067Z,19.28
2023-02-25T10:53:34.229Z,19.27
2023-02-25T10:56:01.801Z,19.40
2023-02-25T10:58:33.651Z,19.47
2023-02-25T11:01:04.558Z,19.52
2023-02-25T11:03:32.706Z,19.59
2023-02-25T11:06:02.567Z,19.61
2023-02-25T11:08:32.092Z,19.66
2023-02-25T11:11:01.542Z,19.69
2023-02-25T11:13:29.971Z,19.74
2023-02-25T11:15:59.199Z,19.81
2023-02-25T11:18:29.287Z,19.82
2023-02-25T11:21:00.005Z,19.87
2023-02-25T11:23:30.030Z,19.93
2023-02-25T11:25:57.822Z,19.99
2023-02-25T11:28:29.414Z,20.05
2023-02-25T11:31:06.562Z,20.12
2023-02-25T11:33:37.483Z,20.16
2023-02-25T11:36:05.076Z,20.20
2023-02-25T11:38:35.136Z,20.24
2023-02-25T11:41:03.409Z,20.27
2023-02-25T11:43:33.855Z,20.35
2023-02-25T11:46:03.295Z,20.40
2023-02-25T11:48:30.840Z,20.48
2023-02-25T11:51:00.809Z,20.52
2023-02-25T11:53:30.817Z,20.57
2023-02-25T11:56:05.075Z,20.63
2023-02-25T11:58:34.985Z,20.69
2023-02-25T12:01:05.371Z,20.73
2023-02-25T12:03:35.386Z,20.75
2023-02-25T12:06:05.653Z,20.79
2023-02-25T12:08:35.882Z,20.81
2023-02-25T12:11:05.814Z,20.85
2023-02-25T12:13:35.900Z,20.91
2023-02-25T12:16:03.227Z,20.93
2023-02-25T12:18:33.240Z,20.95
2023-02-25T12:21:03.858Z,20.97
2023-02-25T12:23:33.927Z,21.01
2023-02-25T12:26:04.488Z,21.02
2023-02-25T12:28:35.049Z,21.05
2023-02-25T12:31:12.725Z,21.09
2023-02-25T12:33:43.488Z,21.11
2023-02-25T12:36:10.924Z,21.14
2023-02-25T12:38:41.094Z,21.16
2023-02-25T12:41:08.645Z,21.19
2023-02-25T12:43:38.450Z,21.21
2023-02-25T12:46:08.816Z,21.25
2023-02-25T12:48:40.823Z,21.25
2023-02-25T12:51:10.826Z,21.29
2023-02-25T12:53:40.637Z,21.28
2023-02-25T12:56:07.933Z,21.28
2023-02-25T12:58:37.916Z,21.32
2023-02-25T13:01:07.948Z,21.32
2023-02-25T13:03:38.036Z,21.31
2023-02-25T13:06:08.063Z,21.33
2023-02-25T13:08:35.248Z,21.32
2023-02-25T13:11:10.721Z,21.34
2023-02-25T13:13:40.823Z,21.35
2023-02-25T13:16:18.561Z,21.38
2023-02-25T13:18:51.158Z,21.39
2023-02-25T13:21:21.564Z,21.44
2023-02-25T13:23:51.378Z,21.50
2023-02-25T13:26:27.108Z,21.53
2023-02-25T13:29:03.843Z,21.59
2023-02-25T13:31:31.249Z,21.65
2023-02-25T13:34:01.713Z,21.67
2023-02-25T13:36:29.266Z,21.70
2023-02-25T13:38:56.408Z,21.70
2023-02-25T13:41:24.991Z,21.73
2023-02-25T13:43:52.629Z,21.77
2023-02-25T13:46:21.108Z,21.80
2023-02-25T13:48:51.671Z,21.86
2023-02-25T13:51:22.294Z,21.88
2023-02-25T13:53:52.680Z,21.91
2023-02-25T13:56:21.184Z,21.92
2023-02-25T13:58:53.816Z,21.90
2023-02-25T14:01:24.990Z,21.91
2023-02-25T14:03:59.893Z,21.92
2023-02-25T14:06:30.225Z,21.91
2023-02-25T14:09:00.500Z,21.90
2023-02-25T14:11:30.509Z,21.89
2023-02-25T14:14:01.578Z,21.89
2023-02-25T14:16:37.014Z,21.89
2023-02-25T14:19:04.455Z,21.90
2023-02-25T14:21:34.442Z,21.88
2023-02-25T14:24:08.273Z,21.88
2023-02-25T14:26:43.283Z,21.88
2023-02-25T14:29:13.265Z,21.86
2023-02-25T14:31:42.143Z,21.87
2023-02-25T14:34:09.529Z,21.87
2023-02-25T14:36:39.842Z,21.81
2023-02-25T14:39:18.191Z,21.86
2023-02-25T14:41:46.565Z,21.87
2023-02-25T14:44:17.283Z,21.91
2023-02-25T14:46:51.142Z,21.95
2023-02-25T14:49:21.926Z,21.98
2023-02-25T14:51:51.805Z,22.00
2023-02-25T14:54:21.673Z,22.02
2023-02-25T14:56:51.685Z,22.05
2023-02-25T14:59:22.010Z,22.06
2023-02-25T15:01:52.078Z,22.08
2023-02-25T15:04:22.045Z,22.10
2023-02-25T15:06:49.191Z,22.10
2023-02-25T15:09:16.392Z,22.13
2023-02-25T15:11:46.216Z,22.15
2023-02-25T15:14:22.128Z,22.16
2023-02-25T15:16:51.960Z,22.15
2023-02-25T15:19:28.637Z,22.15
2023-02-25T15:21:58.608Z,22.11
2023-02-25T15:24:27.327Z,22.08
2023-02-25T15:26:54.843Z,22.06
2023-02-25T15:29:41.593Z,22.03
2023-02-25T15:32:11.460Z,22.00
2023-02-25T15:34:38.936Z,21.96
2023-02-25T15:37:08.882Z,21.93
2023-02-25T15:39:38.844Z,21.96
2023-02-25T15:42:06.000Z,21.95
2023-02-25T15:44:33.960Z,21.93
2023-02-25T15:47:03.966Z,21.92
2023-02-25T15:49:33.530Z,21.92
2023-02-25T15:52:04.173Z,21.88
2023-02-25T15:54:31.758Z,21.85
2023-02-25T15:57:00.700Z,21.83
2023-02-25T15:59:30.713Z,21.81
2023-02-25T16:01:59.868Z,21.79
2023-02-25T16:04:36.346Z,21.78
2023-02-25T16:07:07.319Z,21.73
2023-02-25T16:09:34.949Z,21.68
2023-02-25T16:12:05.764Z,21.67
2023-02-25T16:14:35.493Z,21.66
2023-02-25T16:17:04.162Z,21.62
2023-02-25T16:19:36.164Z,21.60
2023-02-25T16:22:09.323Z,21.58
2023-02-25T16:24:37.327Z,21.56
2023-02-25T16:27:06.872Z,21.55
2023-02-25T16:29:34.542Z,21.51
2023-02-25T16:32:06.089Z,21.47
2023-02-25T16:34:38.563Z,21.46
2023-02-25T16:37:10.162Z,21.42
2023-02-25T16:39:37.944Z,21.38
2023-02-25T16:42:06.717Z,21.37
2023-02-25T16:44:38.533Z,21.36
2023-02-25T16:47:13.347Z,21.33
2023-02-25T16:49:46.318Z,21.29
2023-02-25T16:52:16.457Z,21.28
2023-02-25T16:54:44.832Z,21.23
2023-02-25T16:57:19.613Z,21.19
2023-02-25T16:59:47.680Z,21.17
2023-02-25T17:02:18.236Z,21.17
2023-02-25T17:04:47.361Z,21.17
2023-02-25T17:07:18.156Z,21.21
2023-02-25T17:09:48.322Z,21.23
2023-02-25T17:12:17.604Z,21.26
2023-02-25T17:14:47.188Z,21.28
2023-02-25T17:17:16.923Z,21.30
2023-02-25T17:19:44.328Z,21.34
2023-02-25T17:22:11.803Z,21.40
2023-02-25T17:24:40.782Z,21.43
2023-02-25T17:27:13.101Z,21.45
2023-02-25T17:29:40.646Z,21.48
2023-02-25T17:32:10.770Z,21.48
2023-02-25T17:34:37.831Z,21.48
2023-02-25T17:37:06.893Z,21.49
2023-02-25T17:39:33.896Z,21.50
2023-02-25T17:42:00.949Z,21.49
2023-02-25T17:44:30.931Z,21.50
2023-02-25T17:47:00.496Z,21.50
2023-02-25T17:49:29.775Z,21.52
2023-02-25T17:51:59.770Z,21.53
2023-02-25T17:54:27.625Z,21.53
2023-02-25T17:56:59.411Z,21.51
2023-02-25T17:59:30.656Z,21.53
2023-02-25T18:01:58.447Z,21.54
2023-02-25T18:04:25.934Z,21.49
2023-02-25T18:06:55.969Z,21.53
2023-02-25T18:09:26.174Z,21.52
2023-02-25T18:11:54.795Z,21.52
2023-02-25T18:14:24.641Z,21.52
2023-02-25T18:16:53.019Z,21.49
2023-02-25T18:19:23.466Z,21.47
2023-02-25T18:21:50.757Z,21.42
2023-02-25T18:24:20.929Z,21.43
2023-02-25T18:26:51.156Z,21.39
2023-02-25T18:29:20.536Z,21.36
2023-02-25T18:31:49.840Z,21.37
2023-02-25T18:34:16.920Z,21.36
2023-02-25T18:36:44.572Z,21.33
2023-02-25T18:39:12.731Z,21.28
2023-02-25T18:41:41.905Z,21.26
2023-02-25T18:44:12.088Z,21.22
2023-02-25T18:46:38.983Z,21.22
2023-02-25T18:49:06.039Z,21.20
2023-02-25T18:51:32.921Z,21.14
2023-02-25T18:54:02.318Z,21.16
2023-02-25T18:56:29.253Z,21.09
2023-02-25T18:58:57.840Z,21.09
2023-02-25T19:01:27.027Z,21.06
2023-02-25T19:03:59.478Z,21.06
2023-02-25T19:06:28.043Z,21.02
2023-02-25T19:08:54.983Z,20.95
2023-02-25T19:11:24.206Z,20.98
2023-02-25T19:13:51.770Z,20.93
2023-02-25T19:16:19.580Z,20.85
2023-02-25T19:18:47.990Z,20.80
2023-02-25T19:21:16.959Z,20.82
2023-02-25T19:23:44.218Z,20.83
2023-02-25T19:26:11.358Z,20.79
2023-02-25T19:28:38.351Z,20.74
2023-02-25T19:31:06.259Z,20.72
2023-02-25T19:33:33.171Z,20.71
2023-02-25T19:36:00.532Z,20.70
2023-02-25T19:38:27.344Z,20.66
2023-02-25T19:40:54.608Z,20.67
2023-02-25T19:43:21.790Z,20.62
2023-02-25T19:45:50.581Z,20.63
2023-02-25T19:48:17.434Z,20.56
2023-02-25T19:50:44.328Z,20.52
2023-02-25T19:53:11.513Z,20.49
2023-02-25T19:55:39.370Z,20.44
2023-02-25T19:58:06.301Z,20.41
2023-02-25T20:00:33.293Z,20.40
2023-02-25T20:03:00.184Z,20.37
2023-02-25T20:05:27.024Z,20.34
2023-02-25T20:07:53.902Z,20.30
2023-02-25T20:10:23.913Z,20.27
2023-02-25T20:12:50.785Z,20.24
2023-02-25T20:15:17.818Z,20.23
2023-02-25T20:17:45.594Z,20.17
2023-02-25T20:20:13.426Z,20.19
2023-02-25T20:22:40.656Z,20.15
2023-02-25T20:25:08.325Z,20.11
2023-02-25T20:27:37.281Z,20.11
2023-02-25T20:30:05.045Z,20.09
2023-02-25T20:32:31.958Z,20.07
2023-02-25T20:35:00.504Z,20.05
2023-02-25T20:37:31.580Z,20.02
2023-02-25T20:39:58.955Z,19.96
2023-02-25T20:42:28.651Z,19.92
2023-02-25T20:44:58.916Z,19.90
2023-02-25T20:47:28.093Z,19.90
2023-02-25T20:49:56.160Z,19.87
2023-02-25T20:52:23.532Z,19.86
2023-02-25T20:54:50.692Z,19.83
2023-02-25T20:57:19.141Z,19.81
2023-02-25T20:59:46.097Z,19.76
2023-02-25T21:02:12.929Z,19.72
2023-02-25T21:04:39.736Z,19.73
2023-02-25T21:07:07.189Z,19.72
2023-02-25T21:09:34.308Z,19.69
2023-02-25T21:12:01.765Z,19.64
2023-02-25T21:14:28.622Z,19.63
2023-02-25T21:16:55.523Z,19.59
2023-02-25T21:19:23.445Z,19.55
2023-02-25T21:21:50.630Z,19.55
2023-02-25T21:24:18.240Z,19.51
2023-02-25T21:26:45.657Z,19.49
2023-02-25T21:29:12.798Z,19.45
2023-02-25T21:31:40.398Z,19.48
2023-02-25T21:34:09.334Z,19.46
2023-02-25T21:36:36.771Z,19.42
2023-02-25T21:39:04.160Z,19.42
2023-02-25T21:41:31.099Z,19.40
2023-02-25T21:43:58.182Z,19.33
2023-02-25T21:46:25.382Z,19.32
2023-02-25T21:48:53.475Z,19.33
2023-02-25T21:51:21.887Z,19.32
2023-02-25T21:53:48.766Z,19.26
2023-02-25T21:56:17.091Z,19.24
2023-02-25T21:58:44.535Z,19.26
2023-02-25T22:01:14.656Z,19.22
2023-02-25T22:03:41.738Z,19.17
2023-02-25T22:06:09.271Z,19.18
2023-02-25T22:08:38.024Z,19.15
2023-02-25T22:11:05.402Z,19.13
2023-02-25T22:13:32.780Z,19.07
2023-02-25T22:16:00.926Z,19.11
2023-02-25T22:18:27.682Z,19.09
2023-02-25T22:21:03.038Z,19.11
2023-02-25T22:23:30.104Z,19.13
2023-02-25T22:26:00.944Z,19.16
2023-02-25T22:28:27.806Z,19.16
2023-02-25T22:30:56.928Z,19.17
2023-02-25T22:33:23.994Z,19.20
2023-02-25T22:35:55.453Z,19.24
2023-02-25T22:38:22.278Z,19.24
2023-02-25T22:40:49.126Z,19.27
2023-02-25T22:43:16.019Z,19.35
2023-02-25T22:45:42.812Z,19.40
2023-02-25T22:48:09.584Z,19.46
2023-02-25T22:50:36.431Z,19.50
2023-02-25T22:53:03.250Z,19.56
2023-02-25T22:55:30.060Z,19.61
2023-02-25T22:57:56.871Z,19.69
2023-02-25T23:00:24.154Z,19.75
2023-02-25T23:02:50.988Z,19.81
2023-02-25T23:05:17.792Z,19.85
2023-02-25T23:07:44.597Z,19.92
2023-02-25T23:10:11.589Z,19.97
2023-02-25T23:12:38.377Z,20.01
2023-02-25T23:15:05.560Z,20.05
2023-02-25T23:17:32.357Z,20.09
2023-02-25T23:20:00.481Z,20.12
2023-02-25T23:22:29.809Z,20.15
2023-02-25T23:24:57.346Z,20.20
2023-02-25T23:27:24.385Z,20.23
2023-02-25T23:29:51.204Z,20.27
2023-02-25T23:32:18.261Z,20.31
2023-02-25T23:34:45.101Z,20.35
2023-02-25T23:37:11.963Z,20.43
2023-02-25T23:39:40.072Z,20.45
2023-02-25T23:42:08.890Z,20.50
2023-02-25T23:44:35.981Z,20.56
2023-02-25T23:47:03.231Z,20.61
2023-02-25T23:49:30.034Z,20.64
2023-02-25T23:51:56.867Z,20.67
2023-02-25T23:54:24.287Z,20.71
2023-02-25T23:56:51.275Z,20.75
2023-02-25T23:59:18.564Z,20.78
